Time;durP1;ratioP1;P1;durP2;ratioP2;P2;SDS_P1;SDS_P2;PMS_P1;PMS_P2;Temp;Humidity;BMP_temperature;BMP_pressure;BME280_temperature;BME280_humidity;BME280_pressure;Samples;Min_cycle;Max_cycle;Signal;HPM_P1;HPM_P2
2024/01/06 00:00:31;;;;;;;12.05;2.70;;;5.20;99.90;;;;;;5088951;28;20043;-71
2024/01/06 00:02:59;;;;;;;10.50;2.35;;;5.10;99.90;;;;;;5089546;28;20055;-72
2024/01/06 00:05:27;;;;;;;9.05;2.17;;;5.00;99.90;;;;;;5071599;28;20419;-70
2024/01/06 00:07:54;;;;;;;18.10;4.07;;;4.90;99.90;;;;;;5073964;28;20529;-74
2024/01/06 00:10:22;;;;;;;10.07;1.95;;;4.80;99.90;;;;;;5088752;28;20052;-68
2024/01/06 00:12:51;;;;;;;14.15;2.20;;;4.80;99.90;;;;;;5087977;28;20380;-73
2024/01/06 00:15:18;;;;;;;11.95;2.80;;;4.70;99.90;;;;;;5087980;28;20059;-66
2024/01/06 00:17:46;;;;;;;13.07;2.70;;;4.70;99.90;;;;;;5087994;28;20044;-73
2024/01/06 00:20:14;;;;;;;19.08;3.45;;;4.80;99.90;;;;;;5089911;28;20048;-73
2024/01/06 00:22:44;;;;;;;9.27;3.60;;;4.80;99.90;;;;;;5089690;28;20051;-77
2024/01/06 00:25:12;;;;;;;24.75;5.45;;;4.80;99.90;;;;;;5087492;28;20463;-71
2024/01/06 00:27:39;;;;;;;20.98;5.45;;;4.80;99.90;;;;;;5088338;28;20048;-67
2024/01/06 00:30:08;;;;;;;19.60;6.32;;;4.80;99.90;;;;;;5088564;28;20044;-74
2024/01/06 00:32:36;;;;;;;29.75;7.75;;;4.80;99.90;;;;;;5087453;28;20048;-74
2024/01/06 00:35:05;;;;;;;26.48;6.10;;;4.80;99.90;;;;;;5088060;28;20051;-66
2024/01/06 00:37:32;;;;;;;18.83;5.53;;;4.80;99.90;;;;;;5089316;28;20048;-68
2024/01/06 00:40:00;;;;;;;24.83;5.80;;;4.80;99.90;;;;;;5088782;28;20056;-65
2024/01/06 00:42:28;;;;;;;17.33;4.95;;;4.70;99.90;;;;;;5087851;28;20055;-69
2024/01/06 00:44:55;;;;;;;13.05;4.95;;;4.60;99.90;;;;;;5088505;28;20040;-64
2024/01/06 00:47:24;;;;;;;15.77;4.80;;;4.60;99.90;;;;;;5087996;28;20051;-65
2024/01/06 00:49:51;;;;;;;24.45;4.85;;;4.50;99.90;;;;;;5087571;28;20040;-65
2024/01/06 00:52:19;;;;;;;16.08;4.65;;;4.50;99.90;;;;;;5088271;28;20048;-66
2024/01/06 00:54:47;;;;;;;18.80;5.35;;;4.40;99.90;;;;;;5088960;28;20055;-63
2024/01/06 00:57:15;;;;;;;15.27;4.50;;;4.40;99.90;;;;;;5077111;28;20053;-67
2024/01/06 00:59:42;;;;;;;16.90;4.28;;;4.30;99.90;;;;;;5087293;28;20047;-65
2024/01/06 01:02:10;;;;;;;14.45;4.30;;;4.30;99.90;;;;;;5087479;28;20052;-70
2024/01/06 01:04:38;;;;;;;10.50;3.70;;;4.20;99.90;;;;;;5083187;28;20047;-65
2024/01/06 01:07:06;;;;;;;14.38;4.30;;;4.20;99.90;;;;;;5086844;28;20048;-72
2024/01/06 01:09:34;;;;;;;14.88;3.65;;;4.10;99.90;;;;;;5088405;28;20036;-74
2024/01/06 01:12:02;;;;;;;10.35;3.85;;;4.10;99.90;;;;;;5086618;28;20396;-70
2024/01/06 01:14:30;;;;;;;16.95;3.92;;;4.00;99.90;;;;;;5099215;28;20066;-70
2024/01/06 01:16:58;;;;;;;16.17;4.05;;;4.00;99.90;;;;;;5088810;28;20075;-68
2024/01/06 01:19:25;;;;;;;11.45;3.72;;;3.90;99.90;;;;;;5088160;28;20040;-65
2024/01/06 01:21:55;;;;;;;25.08;5.03;;;3.90;99.90;;;;;;5087412;28;20404;-64
2024/01/06 01:24:23;;;;;;;;;;;3.80;99.90;;;;;;5088390;28;20040;-66
2024/01/06 01:26:50;;;;;;;15.18;4.38;;;3.80;99.90;;;;;;5081481;28;19920;-70
2024/01/06 01:29:20;;;;;;;18.98;4.55;;;3.70;99.90;;;;;;5083979;28;20059;-64
2024/01/06 01:31:47;;;;;;;18.73;3.70;;;3.70;99.90;;;;;;5086940;28;20048;-70
2024/01/06 01:34:15;;;;;;;12.73;3.80;;;3.70;99.90;;;;;;5087951;28;20055;-67
2024/01/06 01:36:43;;;;;;;15.70;3.47;;;3.60;99.90;;;;;;5088170;28;20047;-75
2024/01/06 01:39:11;;;;;;;16.33;4.03;;;3.60;99.90;;;;;;5088256;28;20056;-73
2024/01/06 01:41:40;;;;;;;15.68;3.33;;;3.50;99.90;;;;;;5065948;28;20079;-76
2024/01/06 01:44:07;;;;;;;13.85;4.00;;;3.50;99.90;;;;;;5079839;28;20048;-75
2024/01/06 01:46:35;;;;;;;16.58;3.72;;;3.40;99.90;;;;;;5083635;28;20044;-75
2024/01/06 01:49:04;;;;;;;17.13;3.92;;;3.40;99.90;;;;;;5080262;28;20047;-73
2024/01/06 01:51:34;;;;;;;15.50;4.20;;;3.40;99.90;;;;;;5087872;28;20054;-72
2024/01/06 01:54:05;;;;;;;21.17;4.30;;;3.30;99.90;;;;;;5087828;28;20040;-67
2024/01/06 01:56:36;;;;;;;17.17;4.07;;;3.30;99.90;;;;;;5084843;28;20051;-63
2024/01/06 01:59:11;;;;;;;19.38;4.57;;;3.20;99.90;;;;;;5080828;28;20051;-63
2024/01/06 02:01:42;;;;;;;11.57;5.05;;;3.20;99.90;;;;;;5101726;28;20040;-64
2024/01/06 02:04:09;;;;;;;20.58;6.00;;;3.10;99.90;;;;;;5087216;28;20048;-65
2024/01/06 02:06:37;;;;;;;22.38;4.90;;;3.10;99.90;;;;;;5087988;28;20051;-64
2024/01/06 02:09:05;;;;;;;25.15;4.90;;;3.10;99.90;;;;;;5084398;28;20476;-64
2024/01/06 02:11:33;;;;;;;17.75;5.63;;;3.00;99.90;;;;;;5082309;28;20048;-74
2024/01/06 02:14:01;;;;;;;12.68;4.72;;;3.00;99.90;;;;;;5090890;28;20044;-63
2024/01/06 02:16:28;;;;;;;22.55;5.68;;;3.00;99.90;;;;;;5092316;28;20048;-69
2024/01/06 02:18:57;;;;;;;23.55;6.40;;;2.90;99.90;;;;;;5091988;28;20040;-72
2024/01/06 02:21:28;;;;;;;18.85;5.95;;;2.90;99.90;;;;;;5092258;28;20055;-75
2024/01/06 02:23:56;;;;;;;19.58;6.53;;;2.90;99.90;;;;;;5091809;28;20040;-72
2024/01/06 02:26:24;;;;;;;25.15;7.15;;;2.90;99.90;;;;;;5091858;28;20050;-66
2024/01/06 02:28:51;;;;;;;21.83;8.57;;;2.90;99.90;;;;;;5082618;28;20051;-64
2024/01/06 02:31:19;;;;;;;21.90;9.27;;;2.80;99.90;;;;;;5082521;28;20060;-63
2024/01/06 02:33:47;;;;;;;29.50;10.00;;;2.80;99.90;;;;;;5091129;28;20048;-63
2024/01/06 02:36:15;;;;;;;28.60;11.10;;;2.80;99.90;;;;;;5094387;28;20047;-64
2024/01/06 02:38:43;;;;;;;37.08;12.00;;;2.80;99.90;;;;;;5094011;28;20052;-64
2024/01/06 02:41:11;;;;;;;29.13;11.02;;;2.90;99.90;;;;;;5095100;28;20134;-64
2024/01/06 02:43:38;;;;;;;26.58;11.38;;;2.90;99.90;;;;;;5093853;28;20044;-65
2024/01/06 02:46:07;;;;;;;44.85;11.57;;;2.90;99.90;;;;;;5089358;28;20036;-65
2024/01/06 02:48:34;;;;;;;30.00;9.82;;;2.90;99.90;;;;;;5086604;28;20048;-67
2024/01/06 02:51:02;;;;;;;44.05;11.50;;;2.80;99.90;;;;;;5093680;28;20059;-66
2024/01/06 02:53:30;;;;;;;30.70;9.90;;;2.80;99.90;;;;;;5094643;28;20040;-64
2024/01/06 02:55:58;;;;;;;65.15;10.20;;;2.80;99.90;;;;;;5094906;28;20048;-70
2024/01/06 02:58:25;;;;;;;29.25;9.13;;;2.80;99.90;;;;;;5094368;28;20044;-67
2024/01/06 03:00:53;;;;;;;28.10;8.18;;;2.80;99.90;;;;;;5093767;28;20055;-63
2024/01/06 03:03:21;;;;;;;25.75;8.38;;;2.70;99.90;;;;;;5094499;28;20511;-70
2024/01/06 03:05:49;;;;;;;27.05;8.13;;;2.70;99.90;;;;;;5094377;28;20044;-67
2024/01/06 03:08:17;;;;;;;30.73;8.98;;;2.60;99.90;;;;;;5092353;28;20059;-63
2024/01/06 03:10:44;;;;;;;27.67;8.63;;;2.60;99.90;;;;;;5094722;28;20040;-69
2024/01/06 03:13:12;;;;;;;36.40;9.23;;;2.50;99.90;;;;;;5081037;28;20049;-70
2024/01/06 03:15:40;;;;;;;37.95;8.77;;;2.50;99.90;;;;;;5076684;28;20389;-67
2024/01/06 03:18:08;;;;;;;30.77;9.70;;;2.40;99.90;;;;;;5094044;28;20051;-65
2024/01/06 03:20:36;;;;;;;36.28;10.90;;;2.40;99.90;;;;;;5094359;28;20046;-69
2024/01/06 03:23:04;;;;;;;44.33;11.48;;;2.40;99.90;;;;;;5093926;28;20040;-67
2024/01/06 03:25:31;;;;;;;39.13;11.02;;;2.30;99.90;;;;;;5094413;28;20055;-70
2024/01/06 03:27:59;;;;;;;36.47;11.10;;;2.30;99.90;;;;;;5094272;28;20036;-69
2024/01/06 03:30:26;;;;;;;33.00;10.95;;;2.30;99.90;;;;;;5094062;28;20040;-66
2024/01/06 03:32:54;;;;;;;37.78;11.05;;;2.30;99.90;;;;;;5093860;28;20056;-72
2024/01/06 03:35:22;;;;;;;38.08;10.20;;;2.20;99.90;;;;;;5093511;28;20237;-73
2024/01/06 03:37:50;;;;;;;42.35;10.32;;;2.20;99.90;;;;;;5092570;28;20044;-74
2024/01/06 03:40:17;;;;;;;33.05;9.57;;;2.20;99.90;;;;;;5092700;28;20369;-67
2024/01/06 03:42:45;;;;;;;33.60;9.13;;;2.10;99.90;;;;;;5076171;28;20055;-74
2024/01/06 03:45:13;;;;;;;40.65;10.00;;;2.10;99.90;;;;;;5092810;28;20483;-74
2024/01/06 03:47:40;;;;;;;35.10;9.80;;;2.00;99.90;;;;;;5093571;28;20043;-73
2024/01/06 03:50:08;;;;;;;31.55;9.38;;;2.00;99.90;;;;;;5093711;28;20051;-74
2024/01/06 03:52:36;;;;;;;29.20;9.00;;;2.00;99.90;;;;;;5092392;28;20048;-69
2024/01/06 03:55:05;;;;;;;32.90;9.80;;;1.90;99.90;;;;;;5079388;28;20049;-65
2024/01/06 03:57:32;;;;;;;32.83;9.00;;;1.90;99.90;;;;;;5090750;28;20387;-66
2024/01/06 04:00:00;;;;;;;32.65;8.40;;;1.90;99.90;;;;;;5093584;28;20296;-65
2024/01/06 04:02:30;;;;;;;28.60;8.93;;;1.80;99.90;;;;;;5089983;28;20047;-63
2024/01/06 04:04:58;;;;;;;29.00;9.65;;;1.80;99.90;;;;;;5093360;28;20048;-68
2024/01/06 04:07:26;;;;;;;31.70;9.10;;;1.70;99.90;;;;;;5089310;28;20048;-74
2024/01/06 04:09:53;;;;;;;29.60;9.32;;;1.70;99.90;;;;;;5092247;28;20040;-72
2024/01/06 04:12:21;;;;;;;27.77;9.23;;;1.70;99.90;;;;;;5093167;28;20051;-74
2024/01/06 04:14:48;;;;;;;36.08;9.93;;;1.60;99.90;;;;;;5092330;28;20498;-71
2024/01/06 04:17:16;;;;;;;25.33;8.65;;;1.60;99.90;;;;;;5093167;28;20395;-74
2024/01/06 04:19:44;;;;;;;26.75;8.38;;;1.60;99.90;;;;;;5093120;28;20055;-73
2024/01/06 04:22:12;;;;;;;27.38;8.95;;;1.50;99.90;;;;;;5092938;28;20051;-74
2024/01/06 04:24:40;;;;;;;22.40;6.78;;;1.50;99.90;;;;;;5093189;28;20052;-75
2024/01/06 04:27:09;;;;;;;25.67;7.03;;;1.40;99.90;;;;;;5093163;28;20047;-74
2024/01/06 04:29:37;;;;;;;23.35;7.07;;;1.40;99.90;;;;;;5092984;28;20036;-75
2024/01/06 04:32:07;;;;;;;26.83;6.60;;;1.40;99.90;;;;;;5091772;28;20052;-74
2024/01/06 04:34:34;;;;;;;22.50;7.18;;;1.40;99.90;;;;;;5092336;28;20051;-72
2024/01/06 04:37:02;;;;;;;25.33;7.18;;;1.40;99.90;;;;;;5091508;28;20216;-70
2024/01/06 04:39:30;;;;;;;23.50;7.30;;;1.40;99.90;;;;;;5092438;28;20044;-73
2024/01/06 04:42:00;;;;;;;21.33;7.32;;;1.40;99.90;;;;;;5071241;28;20044;-74
2024/01/06 04:44:28;;;;;;;19.73;6.25;;;1.40;99.90;;;;;;5055020;28;20052;-73
2024/01/06 04:46:57;;;;;;;23.52;7.05;;;1.40;99.90;;;;;;5076170;28;20052;-75
2024/01/06 04:49:24;;;;;;;21.27;7.63;;;1.30;99.90;;;;;;5091501;28;20052;-67
2024/01/06 04:51:52;;;;;;;24.70;7.88;;;1.30;99.90;;;;;;5092576;28;20048;-63
2024/01/06 04:54:20;;;;;;;20.27;7.57;;;1.30;99.90;;;;;;5092527;28;20540;-65
2024/01/06 04:56:47;;;;;;;24.73;7.38;;;1.30;99.90;;;;;;5092759;28;20047;-63
2024/01/06 04:59:15;;;;;;;20.42;8.00;;;1.20;99.90;;;;;;5092580;28;20489;-64
2024/01/06 05:01:43;;;;;;;18.52;6.45;;;1.30;99.90;;;;;;5092461;28;20059;-63
2024/01/06 05:04:10;;;;;;;24.00;6.90;;;1.20;99.90;;;;;;5091485;28;20055;-64
2024/01/06 05:06:38;;;;;;;17.92;7.15;;;1.20;99.90;;;;;;5092211;28;20044;-63
2024/01/06 05:09:05;;;;;;;29.50;9.30;;;1.20;99.90;;;;;;5092067;28;20040;-64
2024/01/06 05:11:33;;;;;;;23.75;7.03;;;1.20;99.90;;;;;;5091955;28;20040;-63
2024/01/06 05:14:01;;;;;;;26.05;8.07;;;1.10;99.90;;;;;;5091211;28;20495;-64
2024/01/06 05:16:28;;;;;;;22.73;8.38;;;1.10;99.90;;;;;;5090880;28;20043;-69
2024/01/06 05:18:56;;;;;;;26.95;7.22;;;1.10;99.90;;;;;;5091863;28;20051;-64
2024/01/06 05:21:23;;;;;;;22.58;7.35;;;1.10;99.90;;;;;;5092008;28;20062;-65
2024/01/06 05:23:51;;;;;;;22.52;7.10;;;1.00;99.90;;;;;;5090161;28;20040;-63
2024/01/06 05:26:19;;;;;;;28.10;8.07;;;1.00;99.90;;;;;;5092078;28;20040;-65
2024/01/06 05:28:46;;;;;;;18.30;7.85;;;1.00;99.90;;;;;;5092013;28;20040;-67
2024/01/06 05:31:14;;;;;;;33.58;7.68;;;1.00;99.90;;;;;;5091799;28;20044;-66
2024/01/06 05:33:42;;;;;;;27.05;7.65;;;1.10;99.90;;;;;;5090832;28;20040;-66
2024/01/06 05:36:10;;;;;;;29.00;8.02;;;1.10;99.90;;;;;;5092110;28;20055;-66
2024/01/06 05:38:38;;;;;;;23.10;8.05;;;1.10;99.90;;;;;;5091907;28;20130;-64
2024/01/06 05:41:05;;;;;;;30.73;9.43;;;1.10;99.90;;;;;;5092416;28;20067;-64
2024/01/06 05:43:33;;;;;;;30.27;8.60;;;1.10;99.90;;;;;;5090538;28;20052;-63
2024/01/06 05:46:00;;;;;;;36.00;9.55;;;1.10;99.90;;;;;;5090762;28;20044;-67
2024/01/06 05:48:28;;;;;;;29.75;9.32;;;1.10;99.90;;;;;;5072628;28;20048;-63
2024/01/06 05:50:57;;;;;;;28.70;8.43;;;1.10;99.90;;;;;;5066861;28;20052;-64
2024/01/06 05:53:25;;;;;;;29.10;8.75;;;1.10;99.90;;;;;;5076487;28;20450;-67
2024/01/06 05:55:52;;;;;;;27.27;8.93;;;1.20;99.90;;;;;;5070248;28;20388;-65
2024/01/06 05:58:21;;;;;;;29.20;8.48;;;1.20;99.90;;;;;;5080716;28;20373;-64
2024/01/06 06:00:49;;;;;;;25.30;8.73;;;1.20;99.90;;;;;;5089583;28;20044;-65
2024/01/06 06:03:17;;;;;;;52.95;8.98;;;1.30;99.90;;;;;;5077792;28;20047;-72
2024/01/06 06:05:45;;;;;;;44.97;8.93;;;1.30;99.90;;;;;;5084678;28;20051;-70
2024/01/06 06:08:12;;;;;;;71.53;10.23;;;1.30;99.90;;;;;;5085167;28;20314;-72
2024/01/06 06:10:51;;;;;;;86.07;12.82;;;1.30;99.90;;;;;;5088702;28;20055;-63
2024/01/06 06:13:19;;;;;;;71.45;10.00;;;1.30;99.90;;;;;;5087013;28;20055;-67
2024/01/06 06:15:47;;;;;;;107.63;23.08;;;1.30;99.90;;;;;;5090132;28;20052;-62
2024/01/06 06:18:14;;;;;;;131.85;12.75;;;1.40;99.90;;;;;;5085778;28;20048;-63
2024/01/06 06:20:43;;;;;;;68.13;10.60;;;1.40;99.90;;;;;;5087658;28;20063;-64
2024/01/06 06:23:11;;;;;;;63.67;10.13;;;1.40;99.90;;;;;;5084699;28;20037;-63
2024/01/06 06:25:39;;;;;;;111.80;12.23;;;1.40;99.90;;;;;;5067102;28;20403;-63
2024/01/06 06:28:07;;;;;;;88.03;10.68;;;1.40;99.90;;;;;;5088334;28;20365;-63
2024/01/06 06:30:35;;;;;;;159.50;12.90;;;1.40;99.90;;;;;;5085785;28;20059;-64
2024/01/06 06:33:03;;;;;;;188.73;16.95;;;1.40;99.90;;;;;;5076993;28;20041;-63
2024/01/06 06:35:31;;;;;;;78.88;13.88;;;1.40;99.90;;;;;;5064912;28;20045;-62
2024/01/06 06:37:59;;;;;;;72.97;11.57;;;1.40;99.90;;;;;;5074269;28;20044;-64
2024/01/06 06:40:26;;;;;;;99.00;12.25;;;1.50;99.90;;;;;;5087537;28;20484;-63
2024/01/06 06:42:54;;;;;;;138.40;13.38;;;1.50;99.90;;;;;;5084157;28;20063;-65
2024/01/06 06:45:24;;;;;;;129.20;13.75;;;1.50;99.90;;;;;;5070722;28;20052;-64
2024/01/06 06:47:52;;;;;;;190.45;18.50;;;1.50;99.90;;;;;;5070263;28;20048;-63
2024/01/06 06:50:23;;;;;;;192.95;16.88;;;1.50;99.90;;;;;;5087437;28;20059;-64
2024/01/06 06:52:52;;;;;;;193.18;13.02;;;1.50;99.90;;;;;;5084350;28;20040;-62
2024/01/06 06:55:20;;;;;;;149.07;14.77;;;1.40;99.90;;;;;;5084652;28;20377;-63
2024/01/06 06:57:47;;;;;;;135.68;13.57;;;1.40;99.90;;;;;;5089209;28;20051;-62
2024/01/06 07:00:17;;;;;;;120.72;13.27;;;1.40;99.90;;;;;;5090925;28;20498;-63
2024/01/06 07:02:45;;;;;;;129.85;12.65;;;1.30;99.90;;;;;;5084660;28;20315;-63
2024/01/06 07:05:12;;;;;;;81.57;10.50;;;1.30;99.90;;;;;;5070916;28;20047;-64
2024/01/06 07:07:40;;;;;;;73.15;11.55;;;1.20;99.90;;;;;;5095657;28;20032;-63
2024/01/06 07:10:08;;;;;;;74.80;12.15;;;1.20;99.90;;;;;;5093763;28;20062;-63
2024/01/06 07:12:36;;;;;;;68.68;10.43;;;1.20;99.90;;;;;;5089364;28;20052;-64
2024/01/06 07:15:04;;;;;;;71.18;10.65;;;1.20;99.90;;;;;;5088252;28;20059;-63
2024/01/06 07:17:34;;;;;;;58.53;10.63;;;1.20;99.90;;;;;;5087118;28;20055;-63
2024/01/06 07:20:02;;;;;;;145.43;14.18;;;1.30;99.90;;;;;;5090403;28;20044;-64
2024/01/06 07:22:30;;;;;;;90.10;11.82;;;1.30;99.90;;;;;;5087816;28;20067;-65
2024/01/06 07:24:58;;;;;;;84.70;14.23;;;1.20;99.90;;;;;;5086721;28;20052;-66
2024/01/06 07:27:26;;;;;;;95.00;10.80;;;1.20;99.90;;;;;;5089926;28;20414;-65
2024/01/06 07:29:55;;;;;;;66.82;10.13;;;1.20;99.90;;;;;;5090978;28;20052;-70
2024/01/06 07:32:23;;;;;;;50.40;10.10;;;1.10;99.90;;;;;;5089532;28;20044;-66
2024/01/06 07:34:51;;;;;;;64.93;10.70;;;1.10;99.90;;;;;;5075182;28;20048;-64
2024/01/06 07:37:18;;;;;;;83.43;13.43;;;1.00;99.90;;;;;;5075305;28;20048;-71
2024/01/06 07:39:46;;;;;;;84.53;12.00;;;1.00;99.90;;;;;;5096592;28;20510;-67
2024/01/06 07:42:14;;;;;;;98.15;13.15;;;1.00;99.90;;;;;;5088235;28;20043;-66
2024/01/06 07:44:41;;;;;;;67.30;10.73;;;1.10;99.90;;;;;;5088157;28;20052;-63
2024/01/06 07:47:09;;;;;;;57.50;12.38;;;1.10;99.90;;;;;;5085985;28;20040;-63
2024/01/06 07:49:37;;;;;;;74.82;11.75;;;1.10;99.90;;;;;;5089034;28;20048;-66
2024/01/06 07:52:05;;;;;;;72.10;13.70;;;1.20;99.90;;;;;;5088654;28;20048;-63
2024/01/06 07:54:32;;;;;;;98.15;13.80;;;1.20;99.90;;;;;;5090299;28;20479;-65
2024/01/06 07:57:00;;;;;;;91.68;15.00;;;1.20;99.90;;;;;;5088934;28;20055;-63
2024/01/06 07:59:28;;;;;;;111.80;14.88;;;1.20;99.90;;;;;;5090018;28;20040;-64
2024/01/06 08:01:58;;;;;;;111.38;14.48;;;1.30;99.90;;;;;;5085305;28;20040;-63
2024/01/06 08:04:26;;;;;;;135.80;15.25;;;1.30;99.90;;;;;;5080901;28;20056;-68
2024/01/06 08:06:54;;;;;;;132.07;20.52;;;1.30;99.90;;;;;;5078157;28;20082;-64
2024/01/06 08:09:23;;;;;;;110.82;16.30;;;1.30;99.90;;;;;;5089032;28;20048;-68
2024/01/06 08:11:51;;;;;;;74.70;13.43;;;1.40;99.90;;;;;;5089512;28;20499;-65
2024/01/06 08:14:19;;;;;;;90.93;14.85;;;1.40;99.90;;;;;;5088386;28;20368;-66
2024/01/06 08:16:46;;;;;;;66.32;13.18;;;1.50;99.90;;;;;;5089991;28;20044;-64
2024/01/06 08:19:14;;;;;;;190.90;16.95;;;1.50;99.90;;;;;;5079039;28;20045;-67
2024/01/06 08:21:42;;;;;;;139.15;15.43;;;1.50;99.90;;;;;;5068474;28;20053;-70
2024/01/06 08:24:10;;;;;;;151.93;17.08;;;1.50;99.90;;;;;;5087855;28;20550;-68
2024/01/06 08:26:38;;;;;;;245.25;23.20;;;1.50;99.90;;;;;;5089986;28;20052;-70
2024/01/06 08:29:05;;;;;;;204.27;18.00;;;1.50;99.90;;;;;;5071540;28;20044;-64
2024/01/06 08:31:33;;;;;;;145.65;15.90;;;1.50;99.90;;;;;;5088411;28;20048;-69
2024/01/06 08:34:01;;;;;;;185.20;19.85;;;1.60;99.90;;;;;;5081123;28;20040;-69
2024/01/06 08:36:29;;;;;;;176.68;19.42;;;1.60;99.90;;;;;;5070452;28;20048;-67
2024/01/06 08:38:56;;;;;;;152.32;18.10;;;1.60;99.90;;;;;;5088741;28;20040;-74
2024/01/06 08:41:24;;;;;;;269.55;23.08;;;1.60;99.90;;;;;;5089922;28;20048;-73
2024/01/06 08:43:52;;;;;;;234.82;22.33;;;1.60;99.90;;;;;;5089248;28;20043;-68
2024/01/06 08:46:19;;;;;;;209.73;18.38;;;1.60;99.90;;;;;;5088942;28;20048;-63
2024/01/06 08:48:47;;;;;;;191.85;19.27;;;1.60;99.90;;;;;;5082682;28;20040;-63
2024/01/06 08:51:15;;;;;;;236.32;21.38;;;1.60;99.90;;;;;;5073406;28;20051;-63
2024/01/06 08:53:43;;;;;;;231.23;21.63;;;1.60;99.90;;;;;;5087809;28;20051;-64
2024/01/06 08:56:10;;;;;;;149.02;15.73;;;1.60;99.90;;;;;;5089528;28;20054;-63
2024/01/06 08:58:38;;;;;;;174.25;18.60;;;1.70;99.90;;;;;;5090067;28;20040;-63
2024/01/06 09:01:05;;;;;;;154.35;14.95;;;1.70;99.90;;;;;;5089908;28;20399;-64
2024/01/06 09:03:33;;;;;;;136.65;17.75;;;1.70;99.90;;;;;;5086215;28;20040;-63
2024/01/06 09:06:01;;;;;;;99.57;15.35;;;1.70;99.90;;;;;;5073802;28;20612;-63
2024/01/06 09:08:29;;;;;;;152.35;17.15;;;1.70;99.90;;;;;;5081888;28;20415;-64
2024/01/06 09:10:58;;;;;;;119.88;18.02;;;1.70;99.90;;;;;;5067916;28;20384;-64
2024/01/06 09:13:25;;;;;;;180.20;16.23;;;1.70;99.90;;;;;;5085727;28;20067;-63
2024/01/06 09:15:53;;;;;;;147.15;17.65;;;1.80;99.90;;;;;;5088849;28;20300;-64
2024/01/06 09:18:22;;;;;;;121.43;18.55;;;1.80;99.90;;;;;;5087623;28;20055;-64
2024/01/06 09:20:50;;;;;;;171.55;18.13;;;1.80;99.90;;;;;;5084581;28;20048;-64
2024/01/06 09:23:18;;;;;;;163.95;20.58;;;1.80;99.90;;;;;;5087680;28;20044;-63
2024/01/06 09:25:51;;;;;;;221.40;23.40;;;1.90;99.90;;;;;;5089229;28;20059;-63
2024/01/06 09:28:18;;;;;;;;;;;1.90;99.90;;;;;;5088464;28;20051;-64
2024/01/06 09:30:46;;;;;;;135.15;17.58;;;2.00;99.90;;;;;;5089342;28;19931;-64
2024/01/06 09:33:15;;;;;;;149.13;17.90;;;2.00;99.90;;;;;;5087682;28;20490;-71
2024/01/06 09:35:44;;;;;;;260.88;28.35;;;2.00;99.90;;;;;;5074043;28;20040;-69
2024/01/06 09:38:12;;;;;;;245.95;21.33;;;2.00;99.90;;;;;;5088428;28;20044;-67
2024/01/06 09:40:44;;;;;;;206.43;23.27;;;2.00;99.90;;;;;;5087008;28;20071;-65
2024/01/06 09:43:12;;;;;;;156.15;20.05;;;2.10;99.90;;;;;;5088334;28;20043;-69
2024/01/06 09:45:40;;;;;;;254.85;27.48;;;2.00;99.90;;;;;;5070945;28;20047;-64
2024/01/06 09:48:12;;;;;;;306.35;26.48;;;2.10;99.90;;;;;;5069967;28;20514;-64
2024/01/06 09:50:42;;;;;;;206.07;24.95;;;2.10;99.90;;;;;;5055370;28;20040;-63
2024/01/06 09:53:14;;;;;;;249.45;26.20;;;2.10;99.90;;;;;;5079933;28;20963;-64
2024/01/06 09:55:46;;;;;;;285.45;26.88;;;2.20;99.90;;;;;;5067438;28;20040;-63
2024/01/06 09:58:14;;;;;;;304.38;28.13;;;2.20;99.90;;;;;;5086450;28;20048;-65
2024/01/06 10:00:43;;;;;;;276.52;24.77;;;2.20;99.90;;;;;;5088195;28;20036;-63
2024/01/06 10:03:12;;;;;;;216.15;24.02;;;2.20;99.90;;;;;;5087751;28;20051;-64
2024/01/06 10:05:40;;;;;;;227.05;25.73;;;2.20;99.90;;;;;;5037731;28;20556;-64
2024/01/06 10:08:08;;;;;;;224.13;24.27;;;2.20;99.90;;;;;;5062188;28;20048;-66
2024/01/06 10:10:38;;;;;;;292.30;25.15;;;2.30;99.90;;;;;;5069797;28;20287;-64
2024/01/06 10:13:06;;;;;;;233.95;24.08;;;2.40;99.90;;;;;;5062944;28;20064;-63
2024/01/06 10:15:36;;;;;;;203.90;20.40;;;2.40;99.90;;;;;;5108534;28;20471;-65
2024/01/06 10:18:04;;;;;;;247.32;23.52;;;2.40;99.90;;;;;;5100353;28;20055;-64
2024/01/06 10:20:31;;;;;;;178.98;19.77;;;2.40;99.90;;;;;;5072483;28;20052;-65
2024/01/06 10:23:05;;;;;;;181.73;19.63;;;2.40;99.90;;;;;;5077128;28;20040;-67
2024/01/06 10:25:33;;;;;;;210.07;21.05;;;2.40;99.90;;;;;;5088439;28;20052;-64
2024/01/06 10:28:04;;;;;;;170.70;19.05;;;2.50;99.90;;;;;;5083343;28;20403;-65
2024/01/06 10:30:31;;;;;;;172.30;20.60;;;2.50;99.90;;;;;;5085943;28;20052;-65
2024/01/06 10:32:59;;;;;;;240.25;21.45;;;2.60;99.90;;;;;;5089495;28;20115;-66
2024/01/06 10:35:28;;;;;;;190.60;19.58;;;2.50;99.90;;;;;;5086030;28;20522;-64
2024/01/06 10:37:55;;;;;;;302.85;32.60;;;2.60;99.90;;;;;;5076389;28;20483;-63
2024/01/06 10:40:23;;;;;;;230.63;27.00;;;2.70;99.90;;;;;;5091774;28;20047;-64
2024/01/06 10:42:52;;;;;;;270.73;27.13;;;2.80;99.90;;;;;;5091280;28;20047;-64
2024/01/06 10:45:21;;;;;;;209.18;25.15;;;2.80;99.90;;;;;;5091604;28;20063;-64
2024/01/06 10:47:49;;;;;;;266.15;28.35;;;2.90;99.90;;;;;;5096912;28;20039;-63
2024/01/06 10:50:21;;;;;;;311.65;30.75;;;3.00;99.90;;;;;;5089802;28;20044;-64
2024/01/06 10:52:50;;;;;;;265.77;25.83;;;3.10;99.90;;;;;;5082477;28;20597;-64
2024/01/06 10:55:20;;;;;;;256.77;26.90;;;3.10;99.90;;;;;;5090388;28;20064;-69
2024/01/06 10:57:48;;;;;;;;;;;3.10;99.90;;;;;;5090771;28;20134;-66
2024/01/06 11:00:16;;;;;;;275.50;23.90;;;3.20;99.90;;;;;;5090149;28;19920;-66
2024/01/06 11:02:46;;;;;;;178.85;24.10;;;3.20;99.90;;;;;;5086666;28;20052;-66
2024/01/06 11:05:15;;;;;;;294.08;29.88;;;3.30;99.90;;;;;;5077296;28;20055;-71
2024/01/06 11:07:46;;;;;;;325.00;32.83;;;3.30;99.90;;;;;;5074744;28;20044;-65
2024/01/06 11:10:18;;;;;;;320.83;31.63;;;3.40;99.90;;;;;;5091204;28;20494;-66
2024/01/06 11:13:05;;;;;;;348.58;31.98;;;3.40;99.90;;;;;;5090842;28;20059;-74
2024/01/06 11:15:47;;;;;;;250.35;26.10;;;3.50;99.90;;;;;;5090143;28;20044;-66
2024/01/06 11:18:39;;;;;;;230.93;30.23;;;3.50;99.90;;;;;;5090802;28;20063;-65
2024/01/06 11:21:27;;;;;;;347.90;28.77;;;3.50;99.90;;;;;;5088598;28;20114;-65
2024/01/06 11:24:06;;;;;;;156.27;20.73;;;3.50;99.90;;;;;;5094342;28;20048;-68
2024/01/06 11:26:34;;;;;;;327.58;28.40;;;3.60;99.90;;;;;;5090110;28;20052;-71
2024/01/06 11:29:02;;;;;;;185.82;23.60;;;3.70;99.90;;;;;;5090701;28;20048;-69
2024/01/06 11:31:34;;;;;;;273.48;25.55;;;3.70;99.90;;;;;;5090890;28;20054;-69
2024/01/06 11:34:18;;;;;;;219.63;22.55;;;3.70;99.90;;;;;;5090123;28;20047;-70
2024/01/06 11:36:48;;;;;;;161.77;22.58;;;3.80;99.90;;;;;;5090814;28;20419;-70
2024/01/06 11:39:38;;;;;;;116.20;19.90;;;3.80;99.90;;;;;;5090234;28;20044;-68
2024/01/06 11:42:10;;;;;;;146.30;24.95;;;3.90;99.90;;;;;;5090445;28;20044;-64
2024/01/06 11:44:39;;;;;;;110.40;22.27;;;3.90;99.90;;;;;;5072878;28;20048;-64
2024/01/06 11:47:11;;;;;;;179.73;26.58;;;3.90;99.90;;;;;;5077945;28;20484;-64
2024/01/06 11:49:39;;;;;;;189.20;27.52;;;4.00;99.90;;;;;;5087269;28;20044;-66
2024/01/06 11:52:07;;;;;;;139.52;25.15;;;4.00;99.90;;;;;;5084641;28;20479;-63
2024/01/06 11:54:35;;;;;;;130.63;24.08;;;4.10;99.90;;;;;;5090404;28;20499;-65
2024/01/06 11:57:03;;;;;;;114.28;21.60;;;4.20;99.90;;;;;;5089145;28;20494;-72
2024/01/06 11:59:31;;;;;;;147.35;23.83;;;4.30;99.90;;;;;;5090250;28;20052;-64
2024/01/06 12:01:59;;;;;;;200.43;21.80;;;4.40;99.90;;;;;;5089651;28;20058;-67
2024/01/06 12:04:27;;;;;;;121.15;22.65;;;4.50;99.90;;;;;;5086923;28;20056;-73
2024/01/06 12:07:06;;;;;;;136.90;25.23;;;4.50;99.90;;;;;;5102325;28;20407;-68
2024/01/06 12:09:34;;;;;;;170.95;22.67;;;4.50;99.90;;;;;;5089385;28;20036;-71
2024/01/06 12:12:04;;;;;;;189.48;22.23;;;4.50;99.90;;;;;;5088578;28;20048;-72
2024/01/06 12:14:32;;;;;;;158.00;20.15;;;4.60;99.90;;;;;;5088856;28;20041;-71
2024/01/06 12:17:03;;;;;;;85.25;17.65;;;4.70;99.90;;;;;;5090009;28;20052;-67
2024/01/06 12:19:32;;;;;;;108.22;22.33;;;4.80;99.90;;;;;;5088459;28;20575;-66
2024/01/06 12:22:06;;;;;;;158.52;24.75;;;5.00;99.90;;;;;;5089719;28;20051;-72
2024/01/06 12:24:34;;;;;;;43.00;17.90;;;5.40;99.90;;;;;;5088842;28;20044;-66
2024/01/06 12:27:02;;;;;;;19.98;8.98;;;6.00;99.90;;;;;;5089393;28;20044;-64
2024/01/06 12:29:31;;;;;;;13.45;7.18;;;6.50;99.90;;;;;;5088400;28;20048;-67
2024/01/06 12:32:00;;;;;;;13.02;6.60;;;7.00;99.90;;;;;;5089399;28;20052;-65
2024/01/06 12:34:28;;;;;;;11.50;5.75;;;7.60;99.90;;;;;;5089514;28;20044;-64
2024/01/06 12:36:56;;;;;;;11.82;4.93;;;7.80;99.90;;;;;;5085028;28;20040;-65
2024/01/06 12:39:27;;;;;;;15.10;5.57;;;7.80;99.90;;;;;;5089287;28;20365;-65
2024/01/06 12:41:56;;;;;;;7.85;4.85;;;7.70;99.90;;;;;;5089522;28;20048;-64
2024/01/06 12:44:23;;;;;;;12.68;5.32;;;7.50;99.90;;;;;;5087898;28;20499;-63